Arland, Wisconsin
Current Conditions -  °F | °C
As of 12:55 PM on Thursday 23 Oct 2014 (Local Time) from KUBE Reporting Station
Haze Haze  
Wind Chill: 50°   Ceiling: 200
Heat Index: 50°   Visibility: 1.2mi
Dew Point: 48°   Wind: 6mph
Humidity: 94%   Direction: 190°S
Pressure: 30"   Gusts: NA
Location:  45.3064°N, 92.1345°W
Report Text: KUBE 231755Z AUTO 19005KT 1 1/4SM BR OVC002 10/09 A3000 RMK AO2
Loading
Personal Weather Stations






























Interactive Weather Map New forecast layout! Learn more

10-Day Weather Forecast

Advertisements
Track Severe Weather on mobile